sensor_id;sensor_type;location;lat;lon;timestamp;temperature;humidity
20740;DHT22;10530;49.968;19.844;2023-01-29T00:03:06;0.00;99.90
20740;DHT22;10530;49.968;19.844;2023-01-29T00:08:09;0.10;99.90
20740;DHT22;10530;49.968;19.844;2023-01-29T00:13:12;0.10;99.90
20740;DHT22;10530;49.968;19.844;2023-01-29T00:18:15;0.10;99.90
20740;DHT22;10530;49.968;19.844;2023-01-29T00:23:18;0.10;99.90
20740;DHT22;10530;49.968;19.844;2023-01-29T00:28:21;0.10;99.90
20740;DHT22;10530;49.968;19.844;2023-01-29T00:33:24;0.10;99.90
20740;DHT22;10530;49.968;19.844;2023-01-29T00:38:27;0.10;99.90
20740;DHT22;10530;49.968;19.844;2023-01-29T00:43:30;0.10;99.90
20740;DHT22;10530;49.968;19.844;2023-01-29T00:48:51;0.10;99.90
20740;DHT22;10530;49.968;19.844;2023-01-29T00:53:54;0.10;99.90
20740;DHT22;10530;49.968;19.844;2023-01-29T00:59:02;0.10;99.90
20740;DHT22;10530;49.968;19.844;2023-01-29T01:04:06;0.10;99.90
20740;DHT22;10530;49.968;19.844;2023-01-29T01:09:10;0.10;99.90
20740;DHT22;10530;49.968;19.844;2023-01-29T01:14:32;0.00;99.90
20740;DHT22;10530;49.968;19.844;2023-01-29T01:19:37;0.00;99.90
20740;DHT22;10530;49.968;19.844;2023-01-29T01:24:40;-0.10;99.90
20740;DHT22;10530;49.968;19.844;2023-01-29T01:29:43;-0.10;99.90
20740;DHT22;10530;49.968;19.844;2023-01-29T01:34:46;-0.20;99.90
20740;DHT22;10530;49.968;19.844;2023-01-29T01:39:49;-0.20;99.90
20740;DHT22;10530;49.968;19.844;2023-01-29T01:44:57;-0.20;99.90
20740;DHT22;10530;49.968;19.844;2023-01-29T01:50:05;-0.30;99.90
20740;DHT22;10530;49.968;19.844;2023-01-29T01:55:12;-0.30;99.90
20740;DHT22;10530;49.968;19.844;2023-01-29T02:00:17;-0.30;99.90
20740;DHT22;10530;49.968;19.844;2023-01-29T02:05:22;-0.30;99.90
20740;DHT22;10530;49.968;19.844;2023-01-29T02:10:45;-0.30;99.90
20740;DHT22;10530;49.968;19.844;2023-01-29T02:15:48;-0.30;99.90
20740;DHT22;10530;49.968;19.844;2023-01-29T02:26:52;-0.30;99.90
20740;DHT22;10530;49.968;19.844;2023-01-29T02:37:39;-0.30;99.90
20740;DHT22;10530;49.968;19.844;2023-01-29T02:43:05;-0.30;99.90
20740;DHT22;10530;49.968;19.844;2023-01-29T02:48:19;-0.40;99.90
20740;DHT22;10530;49.968;19.844;2023-01-29T02:53:40;-0.40;99.90
20740;DHT22;10530;49.968;19.844;2023-01-29T02:58:54;-0.30;99.90
20740;DHT22;10530;49.968;19.844;2023-01-29T03:04:05;-0.30;99.90
20740;DHT22;10530;49.968;19.844;2023-01-29T03:09:14;-0.40;99.90
20740;DHT22;10530;49.968;19.844;2023-01-29T03:14:32;-0.50;99.90
20740;DHT22;10530;49.968;19.844;2023-01-29T03:19:55;-0.50;99.90
20740;DHT22;10530;49.968;19.844;2023-01-29T03:25:00;-0.50;99.90
20740;DHT22;10530;49.968;19.844;2023-01-29T03:30:24;-0.50;99.90
20740;DHT22;10530;49.968;19.844;2023-01-29T03:36:09;-0.50;99.90
20740;DHT22;10530;49.968;19.844;2023-01-29T03:46:56;-0.60;99.90
20740;DHT22;10530;49.968;19.844;2023-01-29T03:52:59;-0.60;99.90
20740;DHT22;10530;49.968;19.844;2023-01-29T03:57:40;-0.60;99.90
20740;DHT22;10530;49.968;19.844;2023-01-29T04:07:59;-0.60;99.90
20740;DHT22;10530;49.968;19.844;2023-01-29T04:13:10;-0.60;99.90
20740;DHT22;10530;49.968;19.844;2023-01-29T04:18:15;-0.60;99.90
20740;DHT22;10530;49.968;19.844;2023-01-29T04:23:40;-0.70;99.90
20740;DHT22;10530;49.968;19.844;2023-01-29T04:34:50;-0.70;99.90
20740;DHT22;10530;49.968;19.844;2023-01-29T04:40:20;-0.80;99.90
20740;DHT22;10530;49.968;19.844;2023-01-29T04:45:39;-0.80;99.90
20740;DHT22;10530;49.968;19.844;2023-01-29T05:01:22;-1.10;99.90
20740;DHT22;10530;49.968;19.844;2023-01-29T05:06:28;-1.10;99.90
20740;DHT22;10530;49.968;19.844;2023-01-29T05:11:33;-1.20;99.90
20740;DHT22;10530;49.968;19.844;2023-01-29T05:16:42;-1.30;99.90
20740;DHT22;10530;49.968;19.844;2023-01-29T05:21:47;-1.40;99.90
20740;DHT22;10530;49.968;19.844;2023-01-29T05:26:52;-1.30;99.90
20740;DHT22;10530;49.968;19.844;2023-01-29T05:32:14;-1.50;99.90
20740;DHT22;10530;49.968;19.844;2023-01-29T05:37:17;-1.60;99.90
20740;DHT22;10530;49.968;19.844;2023-01-29T05:42:20;-1.60;99.90
20740;DHT22;10530;49.968;19.844;2023-01-29T05:47:23;-1.60;99.90
20740;DHT22;10530;49.968;19.844;2023-01-29T05:52:25;-1.70;99.90
20740;DHT22;10530;49.968;19.844;2023-01-29T05:57:28;-1.70;99.90
20740;DHT22;10530;49.968;19.844;2023-01-29T06:02:31;-1.70;99.90
20740;DHT22;10530;49.968;19.844;2023-01-29T06:07:33;-1.60;99.90
20740;DHT22;10530;49.968;19.844;2023-01-29T06:12:37;-1.60;99.90
20740;DHT22;10530;49.968;19.844;2023-01-29T06:17:41;-1.70;99.90
20740;DHT22;10530;49.968;19.844;2023-01-29T06:22:43;-1.70;99.90
20740;DHT22;10530;49.968;19.844;2023-01-29T06:27:49;-1.80;99.90
20740;DHT22;10530;49.968;19.844;2023-01-29T06:32:55;-1.80;99.90
20740;DHT22;10530;49.968;19.844;2023-01-29T06:38:00;-1.80;99.90
20740;DHT22;10530;49.968;19.844;2023-01-29T06:43:02;-1.80;99.90
20740;DHT22;10530;49.968;19.844;2023-01-29T06:48:05;-1.90;99.90
20740;DHT22;10530;49.968;19.844;2023-01-29T06:53:08;-1.90;99.90
20740;DHT22;10530;49.968;19.844;2023-01-29T06:58:11;-1.90;99.90
20740;DHT22;10530;49.968;19.844;2023-01-29T07:03:14;-1.90;99.90
20740;DHT22;10530;49.968;19.844;2023-01-29T07:08:16;-2.00;99.90
20740;DHT22;10530;49.968;19.844;2023-01-29T07:13:19;-1.90;99.90
20740;DHT22;10530;49.968;19.844;2023-01-29T07:18:22;-1.90;99.90
20740;DHT22;10530;49.968;19.844;2023-01-29T07:23:27;-1.90;99.90
20740;DHT22;10530;49.968;19.844;2023-01-29T07:28:30;-1.80;99.90
20740;DHT22;10530;49.968;19.844;2023-01-29T07:33:33;-1.80;99.90
20740;DHT22;10530;49.968;19.844;2023-01-29T07:38:36;-1.90;99.90
20740;DHT22;10530;49.968;19.844;2023-01-29T07:43:39;-1.80;99.90
20740;DHT22;10530;49.968;19.844;2023-01-29T07:48:42;-1.80;99.90
20740;DHT22;10530;49.968;19.844;2023-01-29T07:53:44;-1.90;99.90
20740;DHT22;10530;49.968;19.844;2023-01-29T07:58:47;-1.80;99.90
20740;DHT22;10530;49.968;19.844;2023-01-29T08:03:50;-1.50;99.90
20740;DHT22;10530;49.968;19.844;2023-01-29T08:08:52;-1.20;99.90
20740;DHT22;10530;49.968;19.844;2023-01-29T08:13:57;-0.80;99.90
20740;DHT22;10530;49.968;19.844;2023-01-29T08:19:02;-0.80;99.90
20740;DHT22;10530;49.968;19.844;2023-01-29T08:24:05;-0.80;99.90
20740;DHT22;10530;49.968;19.844;2023-01-29T08:29:10;0.10;99.90
20740;DHT22;10530;49.968;19.844;2023-01-29T08:34:13;0.50;99.90
20740;DHT22;10530;49.968;19.844;2023-01-29T08:39:16;0.00;99.90
20740;DHT22;10530;49.968;19.844;2023-01-29T08:44:19;-0.40;99.90
20740;DHT22;10530;49.968;19.844;2023-01-29T08:49:22;-0.80;99.90
20740;DHT22;10530;49.968;19.844;2023-01-29T08:54:25;-0.90;99.90
20740;DHT22;10530;49.968;19.844;2023-01-29T08:59:28;-0.90;99.90
20740;DHT22;10530;49.968;19.844;2023-01-29T09:04:30;0.10;99.90
20740;DHT22;10530;49.968;19.844;2023-01-29T09:09:33;3.30;99.90
20740;DHT22;10530;49.968;19.844;2023-01-29T09:14:36;1.10;99.90
20740;DHT22;10530;49.968;19.844;2023-01-29T09:19:39;1.80;99.90
20740;DHT22;10530;49.968;19.844;2023-01-29T09:24:42;2.00;99.90
20740;DHT22;10530;49.968;19.844;2023-01-29T09:29:45;3.60;99.90
20740;DHT22;10530;49.968;19.844;2023-01-29T09:34:48;1.20;99.90
20740;DHT22;10530;49.968;19.844;2023-01-29T09:39:51;0.50;99.90
20740;DHT22;10530;49.968;19.844;2023-01-29T09:50:36;-0.10;99.90
20740;DHT22;10530;49.968;19.844;2023-01-29T09:55:49;0.00;99.90
20740;DHT22;10530;49.968;19.844;2023-01-29T10:11:57;-0.60;99.90
20740;DHT22;10530;49.968;19.844;2023-01-29T10:27:38;0.00;99.90
20740;DHT22;10530;49.968;19.844;2023-01-29T10:32:42;0.40;99.90
20740;DHT22;10530;49.968;19.844;2023-01-29T10:37:45;1.00;99.90
20740;DHT22;10530;49.968;19.844;2023-01-29T10:42:58;0.30;99.90
20740;DHT22;10530;49.968;19.844;2023-01-29T10:59:34;-0.50;99.90
20740;DHT22;10530;49.968;19.844;2023-01-29T11:04:38;-0.40;99.90
20740;DHT22;10530;49.968;19.844;2023-01-29T11:09:45;5.40;99.90
20740;DHT22;10530;49.968;19.844;2023-01-29T11:14:57;2.00;99.90
20740;DHT22;10530;49.968;19.844;2023-01-29T11:20:01;0.80;99.90
20740;DHT22;10530;49.968;19.844;2023-01-29T11:25:28;0.30;99.90
20740;DHT22;10530;49.968;19.844;2023-01-29T11:30:37;-0.20;99.90
20740;DHT22;10530;49.968;19.844;2023-01-29T11:35:40;-0.60;99.90
20740;DHT22;10530;49.968;19.844;2023-01-29T11:40:44;-0.40;99.90
20740;DHT22;10530;49.968;19.844;2023-01-29T11:45:50;-0.30;99.90
20740;DHT22;10530;49.968;19.844;2023-01-29T11:50:59;-0.30;99.90
20740;DHT22;10530;49.968;19.844;2023-01-29T11:56:05;-0.40;99.90
20740;DHT22;10530;49.968;19.844;2023-01-29T12:01:31;-0.30;99.90
20740;DHT22;10530;49.968;19.844;2023-01-29T12:06:39;-0.40;99.90
20740;DHT22;10530;49.968;19.844;2023-01-29T12:11:43;-0.40;99.90
20740;DHT22;10530;49.968;19.844;2023-01-29T12:22:16;-0.30;99.90
20740;DHT22;10530;49.968;19.844;2023-01-29T12:27:42;-0.20;99.90
20740;DHT22;10530;49.968;19.844;2023-01-29T12:32:48;-0.20;99.90
20740;DHT22;10530;49.968;19.844;2023-01-29T12:38:18;0.20;99.90
20740;DHT22;10530;49.968;19.844;2023-01-29T12:43:26;2.10;99.90
20740;DHT22;10530;49.968;19.844;2023-01-29T12:48:33;0.10;99.90
20740;DHT22;10530;49.968;19.844;2023-01-29T12:53:44;-0.20;99.90
20740;DHT22;10530;49.968;19.844;2023-01-29T12:58:51;-0.50;99.90
20740;DHT22;10530;49.968;19.844;2023-01-29T13:09:27;-0.60;99.90
20740;DHT22;10530;49.968;19.844;2023-01-29T13:19:51;-0.60;99.90
20740;DHT22;10530;49.968;19.844;2023-01-29T13:24:56;-0.50;99.90
20740;DHT22;10530;49.968;19.844;2023-01-29T13:30:07;-0.30;99.90
20740;DHT22;10530;49.968;19.844;2023-01-29T13:35:13;-0.50;99.90
20740;DHT22;10530;49.968;19.844;2023-01-29T13:40:22;-0.40;99.90
20740;DHT22;10530;49.968;19.844;2023-01-29T13:45:43;-0.50;99.90
20740;DHT22;10530;49.968;19.844;2023-01-29T13:50:47;-0.50;99.90
20740;DHT22;10530;49.968;19.844;2023-01-29T13:55:50;-0.50;99.90
20740;DHT22;10530;49.968;19.844;2023-01-29T14:00:53;-0.50;99.90
20740;DHT22;10530;49.968;19.844;2023-01-29T14:05:58;-0.50;99.90
20740;DHT22;10530;49.968;19.844;2023-01-29T14:21:29;-0.50;99.90
20740;DHT22;10530;49.968;19.844;2023-01-29T14:26:43;-0.60;99.90
20740;DHT22;10530;49.968;19.844;2023-01-29T14:42:25;-0.90;99.90
20740;DHT22;10530;49.968;19.844;2023-01-29T14:52:43;-1.10;99.90
20740;DHT22;10530;49.968;19.844;2023-01-29T14:57:49;-1.20;99.90
20740;DHT22;10530;49.968;19.844;2023-01-29T15:02:53;-1.20;99.90
20740;DHT22;10530;49.968;19.844;2023-01-29T15:08:22;-1.20;99.90
20740;DHT22;10530;49.968;19.844;2023-01-29T15:13:44;-1.30;99.90
20740;DHT22;10530;49.968;19.844;2023-01-29T15:18:51;-1.30;99.90
20740;DHT22;10530;49.968;19.844;2023-01-29T15:24:04;-1.40;99.90
20740;DHT22;10530;49.968;19.844;2023-01-29T15:29:22;-1.50;99.90
20740;DHT22;10530;49.968;19.844;2023-01-29T15:34:26;-0.50;99.90
20740;DHT22;10530;49.968;19.844;2023-01-29T15:39:29;-1.40;99.90
20740;DHT22;10530;49.968;19.844;2023-01-29T15:44:33;-1.60;99.90
20740;DHT22;10530;49.968;19.844;2023-01-29T15:49:38;-1.70;99.90
20740;DHT22;10530;49.968;19.844;2023-01-29T15:54:42;-1.70;99.90
20740;DHT22;10530;49.968;19.844;2023-01-29T15:59:47;-1.80;99.90
20740;DHT22;10530;49.968;19.844;2023-01-29T16:04:54;-1.80;99.90
20740;DHT22;10530;49.968;19.844;2023-01-29T16:09:57;-1.80;99.90
20740;DHT22;10530;49.968;19.844;2023-01-29T16:15:03;-1.80;99.90
20740;DHT22;10530;49.968;19.844;2023-01-29T16:20:33;-1.90;99.90
20740;DHT22;10530;49.968;19.844;2023-01-29T16:25:38;-1.90;99.90
20740;DHT22;10530;49.968;19.844;2023-01-29T16:30:41;-1.90;99.90
20740;DHT22;10530;49.968;19.844;2023-01-29T16:35:50;-1.80;99.90
20740;DHT22;10530;49.968;19.844;2023-01-29T16:41:14;-1.90;99.90
20740;DHT22;10530;49.968;19.844;2023-01-29T16:46:56;-1.80;99.90
20740;DHT22;10530;49.968;19.844;2023-01-29T16:52:24;-1.80;99.90
20740;DHT22;10530;49.968;19.844;2023-01-29T16:57:32;-1.70;99.90
20740;DHT22;10530;49.968;19.844;2023-01-29T17:02:38;-1.70;99.90
20740;DHT22;10530;49.968;19.844;2023-01-29T17:07:44;-1.70;99.90
20740;DHT22;10530;49.968;19.844;2023-01-29T17:13:07;-1.80;99.90
20740;DHT22;10530;49.968;19.844;2023-01-29T17:18:20;-1.70;99.90
20740;DHT22;10530;49.968;19.844;2023-01-29T17:23:23;-1.70;99.90
20740;DHT22;10530;49.968;19.844;2023-01-29T17:28:26;-1.80;99.90
20740;DHT22;10530;49.968;19.844;2023-01-29T17:33:29;-1.80;99.90
20740;DHT22;10530;49.968;19.844;2023-01-29T17:38:32;-1.80;99.90
20740;DHT22;10530;49.968;19.844;2023-01-29T17:43:35;-1.80;99.90
20740;DHT22;10530;49.968;19.844;2023-01-29T17:48:38;-1.80;99.90
20740;DHT22;10530;49.968;19.844;2023-01-29T17:53:42;-1.80;99.90
20740;DHT22;10530;49.968;19.844;2023-01-29T17:58:47;-1.80;99.90
20740;DHT22;10530;49.968;19.844;2023-01-29T18:03:50;-1.70;99.90
20740;DHT22;10530;49.968;19.844;2023-01-29T18:08:53;-1.70;99.90
20740;DHT22;10530;49.968;19.844;2023-01-29T18:13:56;-1.60;99.90
20740;DHT22;10530;49.968;19.844;2023-01-29T18:24:38;-1.60;99.90
20740;DHT22;10530;49.968;19.844;2023-01-29T18:29:42;-1.50;99.90
20740;DHT22;10530;49.968;19.844;2023-01-29T18:34:45;-1.50;99.90
20740;DHT22;10530;49.968;19.844;2023-01-29T18:39:48;-1.50;99.90
20740;DHT22;10530;49.968;19.844;2023-01-29T18:44:51;-1.50;99.90
20740;DHT22;10530;49.968;19.844;2023-01-29T18:49:54;-1.40;99.90
20740;DHT22;10530;49.968;19.844;2023-01-29T18:54:57;-1.40;99.90
20740;DHT22;10530;49.968;19.844;2023-01-29T19:00:01;-1.40;99.90
20740;DHT22;10530;49.968;19.844;2023-01-29T19:05:05;-1.50;99.90
20740;DHT22;10530;49.968;19.844;2023-01-29T19:10:09;-1.50;99.90
20740;DHT22;10530;49.968;19.844;2023-01-29T19:15:14;-1.50;99.90
20740;DHT22;10530;49.968;19.844;2023-01-29T19:20:22;-1.50;99.90
20740;DHT22;10530;49.968;19.844;2023-01-29T19:25:25;-1.40;99.90
20740;DHT22;10530;49.968;19.844;2023-01-29T19:30:27;-1.50;99.90
20740;DHT22;10530;49.968;19.844;2023-01-29T19:35:30;-1.40;99.90
20740;DHT22;10530;49.968;19.844;2023-01-29T19:40:35;-1.40;99.90
20740;DHT22;10530;49.968;19.844;2023-01-29T19:45:40;-1.40;99.90
20740;DHT22;10530;49.968;19.844;2023-01-29T19:50:59;-1.40;99.90
20740;DHT22;10530;49.968;19.844;2023-01-29T19:56:08;-1.40;99.90
20740;DHT22;10530;49.968;19.844;2023-01-29T20:01:17;-1.40;99.90
20740;DHT22;10530;49.968;19.844;2023-01-29T20:06:26;-1.40;99.90
20740;DHT22;10530;49.968;19.844;2023-01-29T20:11:29;-1.40;99.90
20740;DHT22;10530;49.968;19.844;2023-01-29T20:16:33;-1.40;99.90
20740;DHT22;10530;49.968;19.844;2023-01-29T20:21:38;-1.40;99.90
20740;DHT22;10530;49.968;19.844;2023-01-29T20:26:43;-1.30;99.90
20740;DHT22;10530;49.968;19.844;2023-01-29T20:31:46;-1.30;99.90
20740;DHT22;10530;49.968;19.844;2023-01-29T20:36:49;-1.30;99.90
20740;DHT22;10530;49.968;19.844;2023-01-29T20:41:53;-1.20;99.90
20740;DHT22;10530;49.968;19.844;2023-01-29T20:46:58;-1.20;99.90
20740;DHT22;10530;49.968;19.844;2023-01-29T20:52:04;-1.20;99.90
20740;DHT22;10530;49.968;19.844;2023-01-29T20:57:09;-1.20;99.90
20740;DHT22;10530;49.968;19.844;2023-01-29T21:02:12;-1.10;99.90
20740;DHT22;10530;49.968;19.844;2023-01-29T21:07:16;-1.10;99.90
20740;DHT22;10530;49.968;19.844;2023-01-29T21:12:19;-1.10;99.90
20740;DHT22;10530;49.968;19.844;2023-01-29T21:17:22;-1.10;99.90
20740;DHT22;10530;49.968;19.844;2023-01-29T21:22:27;-1.10;99.90
20740;DHT22;10530;49.968;19.844;2023-01-29T21:27:30;-1.10;99.90
20740;DHT22;10530;49.968;19.844;2023-01-29T21:32:33;-1.00;99.90
20740;DHT22;10530;49.968;19.844;2023-01-29T21:37:36;-1.10;99.90
20740;DHT22;10530;49.968;19.844;2023-01-29T21:42:39;-1.20;99.90
20740;DHT22;10530;49.968;19.844;2023-01-29T21:48:01;-1.20;99.90
20740;DHT22;10530;49.968;19.844;2023-01-29T21:53:04;-1.20;99.90
20740;DHT22;10530;49.968;19.844;2023-01-29T21:58:07;-1.20;99.90
20740;DHT22;10530;49.968;19.844;2023-01-29T22:03:10;-1.20;99.90
20740;DHT22;10530;49.968;19.844;2023-01-29T22:08:13;-1.30;99.90
20740;DHT22;10530;49.968;19.844;2023-01-29T22:13:17;-1.40;99.90
20740;DHT22;10530;49.968;19.844;2023-01-29T22:18:20;-1.50;99.90
20740;DHT22;10530;49.968;19.844;2023-01-29T22:23:23;-1.60;99.90
20740;DHT22;10530;49.968;19.844;2023-01-29T22:28:26;-1.60;99.90
20740;DHT22;10530;49.968;19.844;2023-01-29T22:33:30;-1.60;99.90
20740;DHT22;10530;49.968;19.844;2023-01-29T22:38:34;-1.60;99.90
20740;DHT22;10530;49.968;19.844;2023-01-29T22:43:37;-1.60;99.90
20740;DHT22;10530;49.968;19.844;2023-01-29T22:48:40;-1.60;99.90
20740;DHT22;10530;49.968;19.844;2023-01-29T22:53:48;-1.80;99.90
20740;DHT22;10530;49.968;19.844;2023-01-29T22:58:57;-1.90;99.90
20740;DHT22;10530;49.968;19.844;2023-01-29T23:04:00;-2.00;99.90
20740;DHT22;10530;49.968;19.844;2023-01-29T23:09:03;-1.90;99.90
20740;DHT22;10530;49.968;19.844;2023-01-29T23:14:06;-1.90;99.90
20740;DHT22;10530;49.968;19.844;2023-01-29T23:19:09;-1.90;99.90
20740;DHT22;10530;49.968;19.844;2023-01-29T23:24:13;-1.90;99.90
20740;DHT22;10530;49.968;19.844;2023-01-29T23:29:16;-1.90;99.90
20740;DHT22;10530;49.968;19.844;2023-01-29T23:34:19;-1.80;99.90
20740;DHT22;10530;49.968;19.844;2023-01-29T23:39:22;-1.80;99.90
20740;DHT22;10530;49.968;19.844;2023-01-29T23:44:25;-1.70;99.90
20740;DHT22;10530;49.968;19.844;2023-01-29T23:49:28;-1.70;99.90
20740;DHT22;10530;49.968;19.844;2023-01-29T23:54:31;-1.60;99.90
20740;DHT22;10530;49.968;19.844;2023-01-29T23:59:35;-1.60;99.90
